Time;durP1;ratioP1;P1;durP2;ratioP2;P2;SDS_P1;SDS_P2;PMS_P1;PMS_P2;Temp;Humidity;BMP_temperature;BMP_pressure;BME280_temperature;BME280_humidity;BME280_pressure;Samples;Min_cycle;Max_cycle;Signal;HPM_P1;HPM_P2
2022/09/18 00:02:19;;;;;;;6.80;2.50;;;7.50;90.70;;;;;;6278608;22;20023;-90
2022/09/18 00:05:18;;;;;;;9.13;2.53;;;7.60;51.30;;;;;;6259716;22;20059;-89
2022/09/18 00:08:07;;;;;;;12.18;2.33;;;7.50;1.00;;;;;;6277375;22;20038;-87
2022/09/18 00:10:57;;;;;;;5.47;2.10;;;7.60;1.00;;;;;;6280829;22;20015;-89
2022/09/18 00:13:45;;;;;;;10.63;2.45;;;7.60;1.00;;;;;;6279562;22;20058;-90
2022/09/18 00:16:37;;;;;;;11.48;2.78;;;7.70;1.00;;;;;;6279449;22;20054;-90
2022/09/18 00:19:24;;;;;;;16.30;2.95;;;7.70;1.00;;;;;;6290697;22;20019;-90
2022/09/18 00:22:11;;;;;;;5.57;2.40;;;7.60;1.00;;;;;;6292654;22;20038;-89
2022/09/18 00:25:07;;;;;;;6.55;2.60;;;7.70;99.90;;;;;;6294257;22;20079;-88
2022/09/18 00:27:54;;;;;;;14.57;2.28;;;7.70;99.90;;;;;;6295022;22;20028;-87
2022/09/18 00:30:43;;;;;;;6.82;2.80;;;7.70;99.90;;;;;;6272336;22;20023;-90
2022/09/18 00:33:46;;;;;;;6.22;2.28;;;7.70;99.90;;;;;;6270213;22;20187;-90
2022/09/18 00:36:40;;;;;;;8.05;2.25;;;7.70;99.90;;;;;;6268552;22;20030;-91
2022/09/18 00:39:28;;;;;;;5.82;2.42;;;7.70;99.90;;;;;;6254930;22;20019;-91
2022/09/18 00:42:24;;;;;;;5.30;2.30;;;7.60;99.90;;;;;;6277237;22;20330;-87
2022/09/18 00:45:14;;;;;;;6.10;2.75;;;7.70;99.90;;;;;;6275747;22;20124;-90
2022/09/18 00:48:13;;;;;;;6.68;1.98;;;7.70;99.90;;;;;;6275341;22;20034;-87
2022/09/18 00:51:00;;;;;;;6.53;2.70;;;7.80;99.90;;;;;;6276117;22;20095;-90
2022/09/18 00:54:12;;;;;;;11.48;2.20;;;7.80;99.90;;;;;;6277980;22;20030;-91
2022/09/18 00:57:13;;;;;;;11.20;2.05;;;7.80;99.90;;;;;;6256282;22;20061;-89
2022/09/18 01:00:15;;;;;;;9.55;2.53;;;7.90;99.90;;;;;;6256980;22;20024;-89
2022/09/18 01:03:05;;;;;;;12.63;2.78;;;7.90;99.90;;;;;;6288974;22;20374;-91
2022/09/18 01:06:33;;;;;;;7.68;2.40;;;7.90;99.90;;;;;;6284907;22;20019;-86
2022/09/18 01:09:55;;;;;;;6.68;2.03;;;7.90;99.90;;;;;;6271964;22;20039;-89
2022/09/18 01:13:12;;;;;;;10.00;2.22;;;7.80;99.90;;;;;;6270752;22;20014;-89
2022/09/18 01:16:34;;;;;;;9.15;2.60;;;7.90;99.90;;;;;;6290229;22;20031;-88
2022/09/18 01:19:49;;;;;;;5.10;2.35;;;7.80;99.90;;;;;;6297078;22;20034;-89
2022/09/18 01:23:23;;;;;;;15.13;5.00;;;7.80;99.90;;;;;;6279218;22;20047;-90
2022/09/18 01:26:29;;;;;;;11.70;2.47;;;7.70;99.90;;;;;;6280932;22;20347;-89
2022/09/18 01:29:31;;;;;;;6.93;2.90;;;7.70;99.90;;;;;;6278188;22;20020;-90
2022/09/18 01:32:30;;;;;;;10.03;3.13;;;7.70;99.90;;;;;;6279504;22;20019;-90
2022/09/18 01:35:30;;;;;;;8.57;2.47;;;7.70;99.90;;;;;;6272687;22;20038;-90
2022/09/18 01:39:10;;;;;;;7.45;2.70;;;7.70;99.90;;;;;;6279893;22;20054;-88
2022/09/18 01:42:01;;;;;;;19.50;3.33;;;7.60;1.00;;;;;;6293588;22;20055;-90
2022/09/18 01:44:58;;;;;;;6.47;2.40;;;7.70;1.00;;;;;;6280923;22;20019;-90
2022/09/18 01:48:36;;;;;;;7.57;2.70;;;7.70;1.00;;;;;;6279087;22;20024;-87
2022/09/18 01:51:28;;;;;;;8.40;2.58;;;7.70;99.90;;;;;;6279219;22;20447;-87
2022/09/18 01:54:19;;;;;;;9.77;2.42;;;7.70;99.90;;;;;;6262768;22;20030;-88
2022/09/18 01:57:26;;;;;;;6.65;2.60;;;7.70;99.90;;;;;;6285207;22;20024;-87
2022/09/18 02:00:17;;;;;;;8.13;2.60;;;7.70;99.90;;;;;;6262872;22;20019;-89
2022/09/18 02:03:08;;;;;;;7.63;2.72;;;7.70;1.00;;;;;;6283200;22;20106;-89
2022/09/18 02:06:21;;;;;;;13.02;3.15;;;7.70;1.00;;;;;;6280135;22;20027;-89
2022/09/18 02:09:09;;;;;;;11.18;2.75;;;7.70;1.00;;;;;;6286851;22;20024;-88
2022/09/18 02:12:00;;;;;;;14.65;3.17;;;7.70;1.00;;;;;;6284321;22;20035;-89
2022/09/18 02:14:56;;;;;;;12.00;3.17;;;7.70;1.00;;;;;;6257545;22;20020;-89
2022/09/18 02:17:56;;;;;;;11.27;3.00;;;7.70;1.00;;;;;;6278693;22;20033;-90
2022/09/18 02:20:45;;;;;;;12.95;2.70;;;7.60;59.20;;;;;;6277941;22;20047;-88
2022/09/18 02:23:37;;;;;;;15.48;3.60;;;7.70;60.90;;;;;;6277326;22;20087;-89
2022/09/18 02:26:41;;;;;;;14.23;3.10;;;7.70;55.20;;;;;;6278776;22;20351;-92
2022/09/18 02:29:29;;;;;;;10.52;2.85;;;7.70;99.00;;;;;;6257710;22;20049;-89
2022/09/18 02:32:26;;;;;;;9.60;3.03;;;7.70;64.80;;;;;;6278072;22;20120;-88
2022/09/18 02:35:14;;;;;;;19.02;5.50;;;7.70;99.90;;;;;;6278140;22;20306;-91
2022/09/18 02:38:26;;;;;;;7.25;2.50;;;7.70;99.90;;;;;;6277618;22;20024;-91
2022/09/18 02:41:38;;;;;;;16.13;3.30;;;7.70;99.90;;;;;;6279872;22;20038;-91
2022/09/18 02:44:44;;;;;;;11.40;3.10;;;7.70;99.90;;;;;;6277063;22;20031;-90
2022/09/18 02:48:23;;;;;;;9.05;2.65;;;7.70;99.90;;;;;;6278678;22;20547;-89
2022/09/18 02:51:22;;;;;;;13.25;3.05;;;7.70;99.90;;;;;;6111522;23;20029;-89
2022/09/18 02:54:42;;;;;;;11.10;2.97;;;7.70;99.90;;;;;;6217635;22;20095;-89
2022/09/18 02:57:52;;;;;;;9.60;2.40;;;7.70;99.90;;;;;;6278062;22;20113;-90
2022/09/18 03:00:41;;;;;;;8.23;2.70;;;7.70;99.90;;;;;;6278224;22;20052;-93
2022/09/18 03:03:43;;;;;;;5.75;2.40;;;7.70;99.90;;;;;;6278730;22;20024;-92
2022/09/18 03:06:30;;;;;;;5.85;2.58;;;7.70;99.90;;;;;;6269225;22;20028;-91
2022/09/18 03:09:17;;;;;;;7.63;2.60;;;7.70;99.90;;;;;;6278989;22;20412;-89
2022/09/18 03:12:07;;;;;;;4.45;2.63;;;7.70;1.00;;;;;;6279255;22;20019;-89
2022/09/18 03:14:54;;;;;;;12.80;3.08;;;7.60;1.00;;;;;;6282369;22;20048;-90
2022/09/18 03:17:49;;;;;;;5.53;2.83;;;7.60;1.00;;;;;;6258959;22;20020;-91
2022/09/18 03:20:41;;;;;;;10.32;3.03;;;7.60;99.90;;;;;;6280739;22;20102;-91
2022/09/18 03:23:28;;;;;;;10.43;3.47;;;7.50;99.90;;;;;;6277226;22;20023;-90
2022/09/18 03:26:15;;;;;;;5.85;3.20;;;7.60;99.90;;;;;;6257775;22;20080;-87
2022/09/18 03:29:09;;;;;;;9.05;3.28;;;7.50;1.00;;;;;;6279802;22;20042;-90
2022/09/18 03:31:59;;;;;;;8.63;3.35;;;7.50;1.00;;;;;;6281388;22;20023;-86
2022/09/18 03:34:49;;;;;;;7.53;3.22;;;7.50;32.60;;;;;;6287229;22;20050;-91
2022/09/18 03:37:38;;;;;;;7.70;2.92;;;7.60;22.90;;;;;;6268264;22;20075;-90
2022/09/18 03:40:25;;;;;;;10.20;3.42;;;7.50;87.90;;;;;;6270136;22;20015;-92
2022/09/18 03:43:21;;;;;;;4.05;2.58;;;7.50;99.90;;;;;;6294442;22;20063;-90
2022/09/18 03:46:21;;;;;;;4.05;2.97;;;7.50;99.90;;;;;;6292745;22;20020;-90
2022/09/18 03:49:09;;;;;;;9.35;3.05;;;7.50;99.90;;;;;;6266772;22;20419;-90
2022/09/18 03:51:56;;;;;;;6.55;2.80;;;7.50;99.90;;;;;;6286696;22;20028;-91
2022/09/18 03:55:12;;;;;;;4.70;2.78;;;7.60;99.90;;;;;;6258817;22;20042;-91
2022/09/18 03:58:14;;;;;;;5.72;2.75;;;7.60;99.90;;;;;;6281727;22;20395;-91
2022/09/18 04:01:02;;;;;;;7.57;2.83;;;7.60;99.90;;;;;;6258437;22;20024;-90
2022/09/18 04:03:50;;;;;;;7.32;2.65;;;7.70;99.90;;;;;;6279612;22;20249;-91
2022/09/18 04:06:37;;;;;;;7.75;2.70;;;7.70;99.90;;;;;;6277314;22;20038;-89
2022/09/18 04:09:24;;;;;;;5.90;2.75;;;7.70;99.90;;;;;;6278097;22;20028;-92
2022/09/18 04:12:11;;;;;;;5.32;2.25;;;7.70;98.30;;;;;;6277755;22;20343;-93
2022/09/18 04:15:09;;;;;;;6.53;2.83;;;7.70;1.00;;;;;;6276716;22;20042;-89
2022/09/18 04:17:56;;;;;;;3.63;2.22;;;7.70;1.00;;;;;;6256166;22;20031;-88
2022/09/18 04:20:43;;;;;;;5.63;2.83;;;7.70;1.00;;;;;;6277616;22;20035;-91
2022/09/18 04:23:31;;;;;;;4.45;2.38;;;7.70;1.00;;;;;;6282071;22;20024;-91
2022/09/18 04:26:18;;;;;;;6.68;2.70;;;7.70;1.00;;;;;;6288976;22;20028;-90
2022/09/18 04:29:22;;;;;;;4.90;2.50;;;7.70;1.00;;;;;;6295560;22;20039;-88
2022/09/18 04:32:10;;;;;;;4.38;2.70;;;7.70;1.00;;;;;;6295872;22;20004;-84
2022/09/18 04:35:00;;;;;;;2.75;2.08;;;7.80;1.00;;;;;;6248381;22;20028;-89
2022/09/18 04:37:59;;;;;;;9.20;2.65;;;7.80;9.40;;;;;;6238171;23;20123;-89
2022/09/18 04:40:54;;;;;;;4.00;2.40;;;7.80;29.00;;;;;;6245207;23;20028;-89
2022/09/18 04:43:41;;;;;;;4.10;2.35;;;7.80;54.10;;;;;;6244941;23;20438;-91
2022/09/18 04:46:28;;;;;;;5.38;2.70;;;7.80;9.60;;;;;;6248430;23;20030;-89
2022/09/18 04:49:18;;;;;;;3.85;2.70;;;7.80;65.20;;;;;;6226518;23;20020;-91
2022/09/18 04:52:05;;;;;;;7.90;2.47;;;7.80;1.00;;;;;;6247942;23;20035;-89
2022/09/18 04:54:52;;;;;;;5.93;2.80;;;7.80;1.00;;;;;;6246683;23;20020;-90
2022/09/18 04:57:40;;;;;;;7.75;3.05;;;7.80;11.30;;;;;;6250000;23;20024;-89
2022/09/18 05:00:28;;;;;;;5.25;2.50;;;7.70;52.00;;;;;;6225614;23;20319;-88
2022/09/18 05:03:21;;;;;;;6.68;3.25;;;7.80;1.00;;;;;;6246151;23;20035;-91
2022/09/18 05:06:08;;;;;;;10.20;2.78;;;7.70;1.00;;;;;;6247225;23;20119;-91
2022/09/18 05:08:56;;;;;;;4.00;2.90;;;7.80;1.00;;;;;;6247651;23;20024;-89
2022/09/18 05:11:46;;;;;;;4.10;2.65;;;7.70;30.90;;;;;;6248031;23;20035;-89
2022/09/18 05:14:34;;;;;;;7.65;3.17;;;7.70;2.10;;;;;;6245767;23;20316;-89
2022/09/18 05:17:23;;;;;;;8.77;3.22;;;7.80;1.00;;;;;;6249762;23;20112;-90
2022/09/18 05:20:13;;;;;;;6.40;2.63;;;7.80;1.00;;;;;;6227078;23;20355;-90
2022/09/18 05:23:01;;;;;;;5.18;2.95;;;7.80;1.00;;;;;;6250606;23;20079;-89
2022/09/18 05:25:48;;;;;;;8.30;3.28;;;7.80;1.00;;;;;;6228577;23;20031;-87
2022/09/18 05:28:35;;;;;;;5.45;2.85;;;7.80;1.00;;;;;;6248216;23;20382;-90
2022/09/18 05:31:22;;;;;;;7.03;2.90;;;7.80;1.00;;;;;;6248526;23;20360;-90
2022/09/18 05:34:11;;;;;;;4.13;2.88;;;7.90;99.90;;;;;;6243269;23;20021;-91
2022/09/18 05:36:58;;;;;;;3.92;2.50;;;7.90;99.90;;;;;;6219816;23;20052;-90
2022/09/18 05:39:45;;;;;;;8.55;2.85;;;7.90;99.90;;;;;;6215318;23;20020;-87
2022/09/18 05:42:32;;;;;;;6.05;3.17;;;7.90;90.70;;;;;;6215690;23;20028;-91
2022/09/18 05:45:21;;;;;;;12.55;4.97;;;7.90;50.80;;;;;;6219655;23;20024;-90
2022/09/18 05:48:11;;;;;;;15.88;7.88;;;7.90;36.60;;;;;;6224050;23;20103;-91
2022/09/18 05:50:58;;;;;;;22.00;10.65;;;7.90;99.90;;;;;;6202664;23;20029;-93
2022/09/18 05:53:47;;;;;;;25.00;10.60;;;7.90;99.90;;;;;;6228113;23;20032;-93
2022/09/18 05:56:37;;;;;;;42.13;17.50;;;7.90;99.90;;;;;;6222005;23;20025;-89
2022/09/18 05:59:31;;;;;;;35.42;14.27;;;7.90;1.00;;;;;;6221309;23;20111;-91
2022/09/18 06:06:42;;;;;;;24.08;12.20;;;7.90;14.90;;;;;;6216493;23;20009;-86
2022/09/18 06:13:31;;;;;;;46.03;15.90;;;7.90;99.90;;;;;;6222112;22;20023;-92
2022/09/18 06:16:22;;;;;;;35.53;13.93;;;7.90;99.90;;;;;;6280917;22;20383;-89
2022/09/18 06:56:02;;;;;;;5.53;3.65;;;8.50;99.90;;;;;;6276558;22;20027;-89
2022/09/18 06:59:02;;;;;;;7.32;3.47;;;8.50;25.20;;;;;;6256468;22;20081;-87
2022/09/18 07:01:53;;;;;;;6.32;3.10;;;8.50;1.00;;;;;;6256983;22;20031;-91
2022/09/18 07:04:41;;;;;;;12.65;3.83;;;8.50;1.00;;;;;;6252987;22;20019;-87
2022/09/18 07:07:29;;;;;;;8.13;2.92;;;8.50;1.00;;;;;;6276400;22;20029;-89
2022/09/18 07:14:17;;;;;;;7.43;3.08;;;8.60;99.90;;;;;;6276134;22;20043;-91
2022/09/18 07:17:08;;;;;;;5.70;2.35;;;8.60;99.90;;;;;;6254933;22;20414;-88
2022/09/18 07:20:06;;;;;;;6.10;2.67;;;8.60;99.90;;;;;;6276071;22;20030;-86
2022/09/18 07:22:55;;;;;;;5.88;2.80;;;8.60;99.90;;;;;;6255636;22;20123;-86
2022/09/18 07:25:42;;;;;;;6.47;2.75;;;8.60;99.90;;;;;;6280896;22;20030;-89
2022/09/18 07:28:29;;;;;;;5.75;2.72;;;8.60;99.30;;;;;;6286506;22;20042;-88
2022/09/18 07:31:17;;;;;;;5.72;2.13;;;8.60;17.00;;;;;;6290498;22;20109;-87
2022/09/18 07:34:06;;;;;;;7.13;2.45;;;8.60;1.00;;;;;;6267442;22;20012;-87
2022/09/18 07:36:53;;;;;;;6.30;2.88;;;8.60;1.00;;;;;;6287338;22;20023;-87
2022/09/18 07:39:41;;;;;;;4.50;2.10;;;8.60;1.00;;;;;;6281800;22;20062;-87
2022/09/18 07:42:29;;;;;;;6.18;2.47;;;8.60;1.00;;;;;;6277471;22;20107;-86
2022/09/18 07:45:16;;;;;;;3.58;2.42;;;8.60;1.00;;;;;;6277327;22;20019;-87
2022/09/18 07:48:05;;;;;;;6.30;2.50;;;8.70;1.00;;;;;;6255086;22;20099;-87
2022/09/18 07:50:58;;;;;;;9.75;3.40;;;8.70;1.00;;;;;;6256691;22;20307;-87
2022/09/18 07:53:46;;;;;;;;;;;8.70;1.00;;;;;;6278288;22;20019;-84
2022/09/18 07:56:33;;;;;;;6.88;2.55;;;8.80;1.00;;;;;;6257201;22;19915;-84
2022/09/18 07:59:22;;;;;;;8.25;2.70;;;8.80;1.00;;;;;;6256234;22;20027;-86
2022/09/18 08:02:11;;;;;;;4.57;2.10;;;8.90;99.90;;;;;;6256301;22;20105;-86
2022/09/18 08:04:58;;;;;;;4.70;2.03;;;9.00;99.90;;;;;;6254378;22;20028;-88
2022/09/18 08:07:47;;;;;;;5.97;2.08;;;9.10;99.90;;;;;;6256871;22;20028;-90
2022/09/18 08:10:35;;;;;;;2.70;1.60;;;9.10;99.90;;;;;;6274107;22;20028;-87
2022/09/18 08:13:22;;;;;;;4.25;1.85;;;9.10;99.90;;;;;;6276950;22;20536;-86
2022/09/18 08:16:09;;;;;;;4.95;1.73;;;9.20;99.90;;;;;;6277385;22;20403;-85
2022/09/18 08:18:57;;;;;;;6.00;1.90;;;9.30;99.90;;;;;;6275961;22;20050;-88
2022/09/18 08:21:47;;;;;;;4.88;2.10;;;9.30;99.90;;;;;;6277924;22;20024;-88
2022/09/18 08:24:34;;;;;;;5.43;2.17;;;9.50;99.90;;;;;;6255046;22;20037;-87
2022/09/18 08:27:21;;;;;;;5.50;1.88;;;9.60;99.90;;;;;;6256821;22;20078;-87
2022/09/18 08:30:10;;;;;;;2.00;1.75;;;9.60;99.90;;;;;;6279746;22;20084;-87
2022/09/18 08:33:02;;;;;;;3.67;2.00;;;9.50;99.90;;;;;;6292218;22;20205;-87
2022/09/18 08:35:51;;;;;;;4.60;1.90;;;9.50;99.90;;;;;;6290834;22;20020;-86
2022/09/18 08:38:39;;;;;;;7.72;2.85;;;9.50;99.90;;;;;;6290571;22;20081;-87
2022/09/18 08:41:52;;;;;;;5.35;1.83;;;9.50;99.90;;;;;;6298659;22;20371;-84
2022/09/18 08:44:53;;;;;;;5.47;1.60;;;9.50;99.90;;;;;;6297911;22;20051;-85
2022/09/18 08:47:52;;;;;;;3.92;2.08;;;9.50;99.90;;;;;;6279052;22;20019;-87
2022/09/18 08:50:45;;;;;;;6.30;2.45;;;9.40;99.90;;;;;;6254733;22;20028;-86
2022/09/18 08:53:39;;;;;;;5.28;2.53;;;9.60;99.90;;;;;;6278167;22;20024;-85
2022/09/18 08:56:27;;;;;;;6.85;1.98;;;9.70;99.90;;;;;;6277757;22;20158;-87
2022/09/18 08:59:23;;;;;;;7.13;1.73;;;9.70;99.90;;;;;;6254294;22;20023;-87
2022/09/18 09:02:36;;;;;;;6.05;1.75;;;9.70;99.90;;;;;;6275800;22;20417;-86
2022/09/18 09:05:35;;;;;;;4.03;2.40;;;9.70;78.30;;;;;;6280564;22;20051;-85
2022/09/18 09:08:22;;;;;;;6.70;1.85;;;9.60;49.30;;;;;;6275299;22;20363;-85
2022/09/18 09:11:38;;;;;;;3.65;2.28;;;9.60;42.60;;;;;;6277230;22;20110;-86
2022/09/18 09:14:44;;;;;;;4.65;2.00;;;9.70;46.30;;;;;;6276501;22;20035;-84
2022/09/18 09:18:06;;;;;;;6.47;2.35;;;9.70;14.20;;;;;;6277665;22;20322;-87
2022/09/18 09:21:01;;;;;;;8.20;2.38;;;9.70;8.20;;;;;;6258021;22;20030;-84
2022/09/18 09:24:22;;;;;;;9.52;2.90;;;9.70;9.50;;;;;;6256889;22;20027;-87
2022/09/18 09:27:31;;;;;;;3.45;2.28;;;9.70;2.10;;;;;;6277952;22;20478;-89
2022/09/18 09:30:19;;;;;;;6.47;1.90;;;9.70;1.00;;;;;;6281019;22;20028;-83
2022/09/18 09:33:26;;;;;;;7.07;2.28;;;9.80;1.00;;;;;;6283556;22;20055;-88
2022/09/18 09:36:18;;;;;;;8.48;2.45;;;10.00;1.00;;;;;;6283623;22;20070;-85
2022/09/18 09:39:21;;;;;;;7.68;2.05;;;10.50;1.00;;;;;;6283176;22;20019;-85
2022/09/18 09:42:28;;;;;;;5.10;1.77;;;11.10;1.00;;;;;;6284373;22;20030;-86
2022/09/18 09:45:29;;;;;;;5.95;1.70;;;11.30;1.00;;;;;;6283834;22;20079;-88
2022/09/18 09:48:55;;;;;;;3.90;2.03;;;11.50;1.00;;;;;;6291351;22;20028;-88
2022/09/18 09:51:56;;;;;;;3.45;1.65;;;11.60;99.90;;;;;;6203619;23;20063;-86
2022/09/18 09:54:44;;;;;;;7.30;1.70;;;11.80;99.90;;;;;;6241751;23;20051;-86
2022/09/18 09:57:50;;;;;;;4.75;2.10;;;12.20;99.90;;;;;;6258825;23;20038;-89
2022/09/18 10:01:05;;;;;;;3.95;1.58;;;12.40;99.90;;;;;;6262673;23;20024;-87
2022/09/18 10:04:11;;;;;;;7.05;1.60;;;12.30;99.90;;;;;;6218850;23;20028;-87
2022/09/18 10:07:13;;;;;;;5.30;1.58;;;12.10;99.90;;;;;;6244666;23;20059;-89
2022/09/18 10:10:15;;;;;;;7.72;2.00;;;12.10;99.90;;;;;;6265023;22;20028;-88
2022/09/18 10:13:34;;;;;;;3.63;1.55;;;12.00;99.90;;;;;;6268524;22;20132;-86
2022/09/18 10:16:35;;;;;;;6.57;3.80;;;12.10;99.90;;;;;;6264734;22;20407;-87
2022/09/18 10:19:32;;;;;;;5.15;1.58;;;12.40;99.90;;;;;;6254227;23;20435;-87
2022/09/18 10:22:22;;;;;;;5.20;1.70;;;12.90;99.90;;;;;;6248816;23;20073;-87
2022/09/18 10:25:27;;;;;;;3.58;1.40;;;13.00;99.90;;;;;;6249881;23;20043;-86
2022/09/18 10:28:15;;;;;;;5.63;1.35;;;12.70;99.90;;;;;;6250371;22;20364;-88
2022/09/18 10:31:09;;;;;;;4.78;1.10;;;12.80;99.90;;;;;;6247765;23;20031;-85
2022/09/18 10:33:59;;;;;;;2.83;1.45;;;13.00;99.90;;;;;;6250199;23;20090;-86
2022/09/18 10:36:47;;;;;;;5.15;1.58;;;13.20;99.90;;;;;;6248758;23;20035;-85
2022/09/18 10:39:46;;;;;;;5.60;1.50;;;13.50;99.90;;;;;;6250294;22;20433;-88
2022/09/18 10:42:36;;;;;;;8.15;1.50;;;13.00;99.90;;;;;;6248656;23;20095;-86
2022/09/18 10:45:40;;;;;;;4.47;1.77;;;12.70;99.90;;;;;;6250194;23;20024;-87
2022/09/18 10:48:30;;;;;;;7.95;1.73;;;12.40;99.90;;;;;;6254004;23;20051;-86
2022/09/18 10:51:24;;;;;;;5.90;1.40;;;12.40;99.90;;;;;;6274300;22;20082;-86
2022/09/18 10:54:21;;;;;;;5.95;1.85;;;12.20;99.90;;;;;;6255173;22;20099;-86
2022/09/18 10:57:42;;;;;;;7.53;2.05;;;12.00;99.90;;;;;;6277587;22;20024;-88
2022/09/18 11:00:37;;;;;;;9.25;2.10;;;12.90;99.90;;;;;;6220370;22;20023;-85
2022/09/18 11:03:58;;;;;;;3.33;1.65;;;14.40;99.90;;;;;;6276758;22;20031;-85
2022/09/18 11:06:48;;;;;;;4.45;1.40;;;15.40;99.90;;;;;;6278046;22;20023;-87
2022/09/18 11:09:38;;;;;;;3.47;1.30;;;15.60;98.60;;;;;;6277272;22;20322;-86
2022/09/18 11:12:29;;;;;;;3.15;1.13;;;15.60;94.00;;;;;;6279532;22;20027;-84
2022/09/18 11:15:18;;;;;;;2.25;1.02;;;16.30;86.00;;;;;;6276702;22;20024;-86
2022/09/18 11:18:12;;;;;;;3.20;1.17;;;16.60;60.20;;;;;;6277325;22;20091;-85
2022/09/18 11:21:05;;;;;;;3.58;1.17;;;16.50;52.40;;;;;;6278121;22;20054;-87
2022/09/18 11:24:04;;;;;;;8.38;1.15;;;16.60;44.70;;;;;;6278310;22;20341;-87
2022/09/18 11:26:59;;;;;;;3.92;2.03;;;17.70;37.30;;;;;;6252245;22;20031;-86
2022/09/18 11:29:49;;;;;;;3.53;1.50;;;17.20;25.60;;;;;;6275573;22;20154;-84
2022/09/18 11:32:37;;;;;;;3.20;1.10;;;16.40;25.80;;;;;;6275458;22;20084;-87
2022/09/18 11:35:27;;;;;;;6.13;1.38;;;15.40;21.30;;;;;;6274770;22;20024;-84
2022/09/18 11:38:18;;;;;;;3.17;1.08;;;14.50;45.30;;;;;;6280011;22;20098;-87
2022/09/18 11:41:25;;;;;;;6.50;1.27;;;14.30;53.20;;;;;;6281224;22;20043;-88
2022/09/18 11:44:22;;;;;;;6.07;1.55;;;14.20;55.90;;;;;;6286031;22;20271;-87
2022/09/18 11:47:28;;;;;;;3.72;1.20;;;13.70;65.60;;;;;;6285792;22;20023;-85
2022/09/18 11:50:22;;;;;;;6.22;1.27;;;13.50;62.70;;;;;;6264825;22;20023;-84
2022/09/18 11:53:21;;;;;;;3.50;1.13;;;13.50;73.30;;;;;;6278192;22;20027;-84
2022/09/18 11:56:16;;;;;;;6.20;1.35;;;13.60;61.40;;;;;;6258496;22;20110;-85
2022/09/18 11:59:27;;;;;;;7.32;1.58;;;14.30;58.60;;;;;;6276944;22;20332;-89
2022/09/18 12:02:39;;;;;;;4.57;1.20;;;15.90;29.80;;;;;;6237195;22;20428;-84
2022/09/18 12:05:35;;;;;;;3.53;1.35;;;16.00;22.30;;;;;;6280826;22;20027;-85
2022/09/18 12:08:44;;;;;;;3.15;1.40;;;15.70;22.40;;;;;;6287607;22;20091;-84
2022/09/18 12:11:58;;;;;;;7.57;1.33;;;16.60;20.50;;;;;;6267208;22;20091;-86
2022/09/18 12:14:50;;;;;;;6.10;1.75;;;16.10;13.20;;;;;;6296510;22;20046;-81
2022/09/18 12:18:00;;;;;;;3.10;1.50;;;16.90;6.30;;;;;;6296941;22;20030;-87
2022/09/18 12:20:54;;;;;;;2.00;1.15;;;17.10;1.00;;;;;;6292937;22;20367;-87
2022/09/18 12:23:42;;;;;;;4.97;1.50;;;16.10;2.10;;;;;;6271481;22;20023;-85
2022/09/18 12:26:34;;;;;;;6.75;1.58;;;15.40;3.50;;;;;;6284007;22;20034;-87
2022/09/18 12:29:55;;;;;;;6.63;1.00;;;14.70;10.30;;;;;;6281089;22;20027;-87
2022/09/18 12:33:02;;;;;;;2.63;1.33;;;14.80;15.20;;;;;;6256875;22;20027;-83
2022/09/18 12:36:05;;;;;;;3.58;1.20;;;15.30;16.30;;;;;;6275787;22;20047;-87
2022/09/18 12:39:27;;;;;;;6.50;2.00;;;16.10;11.70;;;;;;6254174;22;20112;-85
2022/09/18 12:42:52;;;;;;;2.77;1.43;;;15.40;5.80;;;;;;6224931;22;20043;-88
2022/09/18 12:45:54;;;;;;;2.33;0.90;;;14.70;8.30;;;;;;6281636;22;20028;-89
2022/09/18 12:49:10;;;;;;;4.80;1.33;;;14.20;5.20;;;;;;6283598;22;20338;-88
2022/09/18 12:52:26;;;;;;;5.53;1.63;;;14.20;2.90;;;;;;6228872;23;20084;-87
2022/09/18 12:55:34;;;;;;;3.80;1.00;;;15.10;1.00;;;;;;6250363;23;20099;-89
2022/09/18 12:58:41;;;;;;;1.85;0.80;;;15.10;1.00;;;;;;6227490;23;20020;-87
2022/09/18 13:01:34;;;;;;;3.83;0.93;;;15.30;1.00;;;;;;6247100;23;20031;-86
2022/09/18 13:04:35;;;;;;;3.13;1.02;;;15.60;1.00;;;;;;6228308;23;20059;-86
2022/09/18 13:07:30;;;;;;;3.53;1.02;;;15.70;1.00;;;;;;6225354;23;20035;-85
2022/09/18 13:10:28;;;;;;;2.55;1.15;;;15.40;1.00;;;;;;6248006;23;20056;-85
2022/09/18 13:13:39;;;;;;;3.70;1.40;;;16.50;1.00;;;;;;6226706;23;20028;-86
2022/09/18 13:16:38;;;;;;;4.03;0.80;;;17.50;1.00;;;;;;6227383;23;20027;-85
2022/09/18 13:19:45;;;;;;;1.85;0.70;;;19.00;1.00;;;;;;6247928;23;20020;-85
2022/09/18 13:22:36;;;;;;;3.42;1.13;;;19.30;1.00;;;;;;6248074;23;20099;-84
2022/09/18 13:25:28;;;;;;;3.10;1.00;;;17.60;1.00;;;;;;6225121;23;20099;-88
2022/09/18 13:28:18;;;;;;;3.42;0.95;;;16.20;1.00;;;;;;6227215;23;20028;-86
2022/09/18 13:31:14;;;;;;;3.15;0.98;;;16.00;1.00;;;;;;6246382;23;20028;-85
2022/09/18 13:34:03;;;;;;;2.10;0.95;;;15.10;1.00;;;;;;6248082;23;20451;-85
2022/09/18 13:36:50;;;;;;;3.33;0.95;;;15.00;1.00;;;;;;6228294;23;20024;-87
2022/09/18 13:39:38;;;;;;;2.80;0.88;;;15.40;1.00;;;;;;6229125;23;20370;-84
2022/09/18 13:42:47;;;;;;;3.13;1.08;;;16.10;1.00;;;;;;6251734;23;20438;-85
2022/09/18 13:45:37;;;;;;;4.47;1.55;;;15.00;1.00;;;;;;6248241;23;20034;-83
2022/09/18 13:48:42;;;;;;;6.28;1.27;;;14.60;1.00;;;;;;6226733;23;20020;-87
2022/09/18 13:51:31;;;;;;;8.75;1.25;;;14.20;1.00;;;;;;6269896;22;20074;-86
2022/09/18 13:54:24;;;;;;;3.42;1.20;;;14.00;1.00;;;;;;6278200;22;20034;-87
2022/09/18 13:57:18;;;;;;;5.40;1.38;;;14.00;1.00;;;;;;6278251;22;20042;-83
2022/09/18 14:00:18;;;;;;;2.65;1.00;;;13.80;1.00;;;;;;6278429;22;20066;-89
2022/09/18 14:03:11;;;;;;;5.93;1.35;;;13.60;1.00;;;;;;6276393;22;20034;-89
2022/09/18 14:05:58;;;;;;;4.38;1.60;;;13.40;1.00;;;;;;6277973;22;20383;-87
2022/09/18 14:08:45;;;;;;;3.53;1.40;;;13.40;1.00;;;;;;6277225;22;20386;-86
2022/09/18 14:11:33;;;;;;;5.38;1.15;;;13.20;1.00;;;;;;6257735;22;20422;-87
2022/09/18 14:14:25;;;;;;;2.88;1.13;;;13.00;1.00;;;;;;6256347;22;20103;-85
2022/09/18 14:17:16;;;;;;;4.88;1.52;;;13.10;1.00;;;;;;6281131;22;20106;-86
2022/09/18 14:20:20;;;;;;;2.95;1.08;;;13.10;1.00;;;;;;6280091;22;20030;-89
2022/09/18 14:23:35;;;;;;;4.28;1.05;;;13.40;1.00;;;;;;6278235;22;20023;-90
2022/09/18 14:26:36;;;;;;;4.07;1.88;;;13.50;1.00;;;;;;6260846;22;20102;-87
2022/09/18 14:29:28;;;;;;;7.10;1.10;;;13.60;1.00;;;;;;6279265;22;20051;-87
2022/09/18 14:32:17;;;;;;;5.28;1.27;;;13.60;1.00;;;;;;6279125;22;20070;-88
2022/09/18 14:35:30;;;;;;;2.55;1.30;;;13.40;1.00;;;;;;6279439;22;20099;-87
2022/09/18 14:38:33;;;;;;;3.42;0.90;;;13.30;1.00;;;;;;6278506;22;20043;-88
2022/09/18 14:41:31;;;;;;;3.25;1.33;;;13.20;1.00;;;;;;6276616;22;20051;-84
2022/09/18 14:44:20;;;;;;;6.07;1.20;;;13.40;1.00;;;;;;6277385;22;20106;-88
2022/09/18 14:47:23;;;;;;;8.60;1.58;;;13.50;1.00;;;;;;6276993;22;20031;-85
2022/09/18 14:50:33;;;;;;;2.95;1.10;;;13.70;1.00;;;;;;6262246;22;20027;-88
2022/09/18 14:53:25;;;;;;;4.28;1.40;;;13.60;1.00;;;;;;6280816;22;20028;-85
2022/09/18 14:56:16;;;;;;;5.15;1.20;;;13.80;1.00;;;;;;6278707;22;20038;-89
2022/09/18 14:59:06;;;;;;;3.88;1.02;;;13.90;1.00;;;;;;6256965;22;20383;-89
2022/09/18 15:02:08;;;;;;;4.45;1.48;;;13.70;1.00;;;;;;6279437;22;20034;-88
2022/09/18 15:05:02;;;;;;;3.45;1.35;;;13.80;1.00;;;;;;6277933;22;20031;-86
2022/09/18 15:07:53;;;;;;;2.25;1.10;;;13.60;1.00;;;;;;6280143;22;20124;-85
2022/09/18 15:10:46;;;;;;;5.75;1.10;;;13.50;1.00;;;;;;6279290;22;20430;-85
2022/09/18 15:13:36;;;;;;;5.40;1.70;;;13.30;1.00;;;;;;6280039;22;20024;-86
2022/09/18 15:16:29;;;;;;;7.15;1.15;;;13.10;1.00;;;;;;6256780;22;20081;-87
2022/09/18 15:19:17;;;;;;;5.38;1.90;;;13.00;1.00;;;;;;6279016;22;20020;-86
2022/09/18 15:22:04;;;;;;;5.85;2.10;;;12.90;1.00;;;;;;6258100;22;20031;-84
2022/09/18 15:24:52;;;;;;;8.32;1.77;;;12.80;6.40;;;;;;6259059;22;20063;-87
2022/09/18 15:27:41;;;;;;;4.00;1.60;;;12.70;1.00;;;;;;6281439;22;20032;-90
2022/09/18 15:30:29;;;;;;;4.63;1.65;;;12.80;3.50;;;;;;6279660;22;20318;-87
2022/09/18 15:33:20;;;;;;;2.20;1.13;;;12.70;2.00;;;;;;6280981;22;20024;-86
2022/09/18 15:36:36;;;;;;;3.10;1.48;;;12.70;1.00;;;;;;6278802;22;20423;-87
2022/09/18 15:39:38;;;;;;;4.18;1.40;;;12.70;1.00;;;;;;6280241;22;20437;-85
2022/09/18 15:42:40;;;;;;;3.28;1.25;;;12.60;1.00;;;;;;6280528;22;20035;-87
2022/09/18 15:45:31;;;;;;;5.28;1.20;;;12.50;1.00;;;;;;6258090;22;20054;-86
2022/09/18 15:48:50;;;;;;;3.78;1.17;;;12.50;1.00;;;;;;6261444;22;20322;-88
2022/09/18 15:51:40;;;;;;;3.28;1.00;;;12.40;2.00;;;;;;6258526;22;20032;-85
2022/09/18 15:54:29;;;;;;;3.65;1.30;;;12.40;3.50;;;;;;6286677;22;20373;-85
2022/09/18 15:57:17;;;;;;;4.32;1.10;;;12.40;4.40;;;;;;6289363;22;20058;-85
2022/09/18 16:00:15;;;;;;;3.65;1.50;;;12.30;7.80;;;;;;6291290;22;20024;-88
2022/09/18 16:03:16;;;;;;;3.85;1.33;;;12.30;10.40;;;;;;6262677;22;20419;-87
2022/09/18 16:06:07;;;;;;;5.03;1.75;;;12.30;7.20;;;;;;6287826;22;20023;-85
2022/09/18 16:08:56;;;;;;;3.03;1.30;;;12.30;6.10;;;;;;6289203;22;20031;-85
2022/09/18 16:11:45;;;;;;;3.85;1.60;;;12.20;7.40;;;;;;6288112;22;20054;-87
2022/09/18 16:14:46;;;;;;;5.88;1.90;;;12.10;10.10;;;;;;6281945;22;20050;-86
2022/09/18 16:17:36;;;;;;;6.22;3.17;;;12.10;10.30;;;;;;6266442;22;20058;-86